createdAt,value
2017-06-04T00:01:32.591Z,22.10
2017-06-04T00:04:00.118Z,22.10
2017-06-04T00:06:28.469Z,21.90
2017-06-04T00:08:56.128Z,21.90
2017-06-04T00:11:23.653Z,21.80
2017-06-04T00:13:51.191Z,21.80
2017-06-04T00:16:18.771Z,21.40
2017-06-04T00:18:46.276Z,21.70
2017-06-04T00:21:13.836Z,21.80
2017-06-04T00:23:41.354Z,21.80
2017-06-04T00:26:08.912Z,21.90
2017-06-04T00:28:36.476Z,21.60
2017-06-04T00:31:04.031Z,21.60
2017-06-04T00:33:31.539Z,21.60
2017-06-04T00:35:59.058Z,21.80
2017-06-04T00:38:26.617Z,21.80
2017-06-04T00:40:54.189Z,21.80
2017-06-04T00:43:21.737Z,21.80
2017-06-04T00:45:49.242Z,21.80
2017-06-04T00:48:16.767Z,21.80
2017-06-04T00:50:44.355Z,21.70
2017-06-04T00:53:11.899Z,21.70
2017-06-04T00:55:39.418Z,21.70
2017-06-04T00:58:06.944Z,21.70
2017-06-04T01:00:34.512Z,21.60
2017-06-04T01:03:02.029Z,21.40
2017-06-04T01:05:29.559Z,21.20
2017-06-04T01:07:57.123Z,21.20
2017-06-04T01:10:24.633Z,21.10
2017-06-04T01:12:52.211Z,21.00
2017-06-04T01:15:19.719Z,20.90
2017-06-04T01:17:47.305Z,20.90
2017-06-04T01:20:14.815Z,20.90
2017-06-04T01:22:42.380Z,21.00
2017-06-04T01:25:09.947Z,21.10
2017-06-04T01:27:37.496Z,21.20
2017-06-04T01:30:05.015Z,21.30
2017-06-04T01:32:32.555Z,21.40
2017-06-04T01:35:00.099Z,21.30
2017-06-04T01:37:27.646Z,21.30
2017-06-04T01:39:55.206Z,21.20
2017-06-04T01:42:22.773Z,21.20
2017-06-04T01:44:50.281Z,21.20
2017-06-04T01:47:17.843Z,21.10
2017-06-04T01:49:45.373Z,21.00
2017-06-04T01:52:12.958Z,20.90
2017-06-04T01:54:40.489Z,20.80
2017-06-04T01:57:08.022Z,20.80
2017-06-04T01:59:35.543Z,20.80
2017-06-04T02:02:03.099Z,20.80
2017-06-04T02:04:30.670Z,20.90
2017-06-04T02:06:59.006Z,20.90
2017-06-04T02:09:26.532Z,20.90
2017-06-04T02:11:54.062Z,20.90
2017-06-04T02:14:21.573Z,21.00
2017-06-04T02:16:49.104Z,20.90
2017-06-04T02:19:16.608Z,20.90
2017-06-04T02:21:44.150Z,20.80
2017-06-04T02:24:11.692Z,20.90
2017-06-04T02:26:39.224Z,20.90
2017-06-04T02:29:07.522Z,21.00
2017-06-04T02:31:35.067Z,20.90
2017-06-04T02:34:03.365Z,21.00
2017-06-04T02:36:30.884Z,21.00
2017-06-04T02:38:58.466Z,21.00
2017-06-04T02:41:26.743Z,21.00
2017-06-04T02:43:54.267Z,21.00
2017-06-04T02:46:21.903Z,20.90
2017-06-04T02:48:49.461Z,21.00
2017-06-04T02:51:17.027Z,21.10
2017-06-04T02:53:44.582Z,21.10
2017-06-04T02:56:12.119Z,21.20
2017-06-04T02:58:39.655Z,21.20
2017-06-04T03:01:07.931Z,20.90
2017-06-04T03:03:36.281Z,21.00
2017-06-04T03:06:03.815Z,20.90
2017-06-04T03:08:31.345Z,21.00
2017-06-04T03:10:59.629Z,21.00
2017-06-04T03:13:27.200Z,21.00
2017-06-04T03:15:54.718Z,21.00
2017-06-04T03:18:22.277Z,20.90
2017-06-04T03:20:49.828Z,20.90
2017-06-04T03:23:17.351Z,21.00
2017-06-04T03:25:44.908Z,21.00
2017-06-04T03:28:12.438Z,20.90
2017-06-04T03:30:40.711Z,20.90
2017-06-04T03:33:09.021Z,21.00
2017-06-04T03:35:36.523Z,20.90
2017-06-04T03:38:04.051Z,21.00
2017-06-04T03:40:31.575Z,20.90
2017-06-04T03:42:59.103Z,21.00
2017-06-04T03:45:26.619Z,20.90
2017-06-04T03:47:54.150Z,20.90
2017-06-04T03:50:22.446Z,20.90
2017-06-04T03:52:49.957Z,20.90
2017-06-04T03:55:17.487Z,20.90
2017-06-04T03:57:45.034Z,20.90
2017-06-04T04:00:12.555Z,20.90
2017-06-04T04:02:40.091Z,20.90
2017-06-04T04:05:07.629Z,20.90
2017-06-04T04:07:35.173Z,20.90
2017-06-04T04:10:02.699Z,20.90
2017-06-04T04:12:30.966Z,21.10
2017-06-04T04:14:59.251Z,21.20
2017-06-04T04:17:27.556Z,21.10
2017-06-04T04:19:55.082Z,21.10
2017-06-04T04:22:23.372Z,21.10
2017-06-04T04:24:50.932Z,21.10
2017-06-04T04:27:19.222Z,21.10
2017-06-04T04:29:46.771Z,21.10
2017-06-04T04:32:14.324Z,21.10
2017-06-04T04:34:41.851Z,21.10
2017-06-04T04:37:09.416Z,21.20
2017-06-04T04:39:36.972Z,21.20
2017-06-04T04:42:04.577Z,21.20
2017-06-04T04:44:32.101Z,21.30
2017-06-04T04:46:59.603Z,21.20
2017-06-04T04:49:27.223Z,21.10
2017-06-04T04:51:54.756Z,21.20
2017-06-04T04:54:22.307Z,21.30
2017-06-04T04:56:49.811Z,21.30
2017-06-04T04:59:18.124Z,21.30
2017-06-04T05:01:45.680Z,21.30
2017-06-04T05:04:13.216Z,21.30
2017-06-04T05:06:41.495Z,21.20
2017-06-04T05:09:09.823Z,21.00
2017-06-04T05:11:37.388Z,21.00
2017-06-04T05:14:04.928Z,21.00
2017-06-04T05:16:32.447Z,21.20
2017-06-04T05:19:00.787Z,21.50
2017-06-04T05:21:28.299Z,21.50
2017-06-04T05:24:01.520Z,21.60
2017-06-04T05:26:29.078Z,21.60
2017-06-04T05:28:56.610Z,21.70
2017-06-04T05:31:24.887Z,21.50
2017-06-04T05:33:53.191Z,21.60
2017-06-04T05:36:20.735Z,21.60
2017-06-04T05:38:48.261Z,21.60
2017-06-04T05:41:15.771Z,21.30
2017-06-04T05:43:43.335Z,21.10
2017-06-04T05:46:10.877Z,21.00
2017-06-04T05:48:38.469Z,21.10
2017-06-04T05:51:05.995Z,21.10
2017-06-04T05:53:33.530Z,21.30
2017-06-04T05:56:01.835Z,21.30
2017-06-04T05:58:29.356Z,21.30
2017-06-04T06:00:56.891Z,21.50
2017-06-04T06:03:24.440Z,21.60
2017-06-04T06:05:51.972Z,21.70
2017-06-04T06:08:19.507Z,21.70
2017-06-04T06:10:47.844Z,21.90
2017-06-04T06:13:15.371Z,21.90
2017-06-04T06:15:42.942Z,22.00
2017-06-04T06:18:10.460Z,22.20
2017-06-04T06:20:37.987Z,22.30
2017-06-04T06:23:05.490Z,22.30
2017-06-04T06:25:33.794Z,22.40
2017-06-04T06:28:01.349Z,22.30
2017-06-04T06:30:28.920Z,22.00
2017-06-04T06:32:56.454Z,22.20
2017-06-04T06:35:24.002Z,22.20
2017-06-04T06:37:51.554Z,22.00
2017-06-04T06:40:19.902Z,22.10
2017-06-04T06:42:47.439Z,22.10
2017-06-04T06:45:15.004Z,22.40
2017-06-04T06:47:42.528Z,22.40
2017-06-04T06:50:10.109Z,22.30
2017-06-04T06:52:37.653Z,22.40
2017-06-04T06:55:05.226Z,22.70
2017-06-04T06:57:32.811Z,22.90
2017-06-04T07:00:00.360Z,23.10
2017-06-04T07:02:27.930Z,23.20
2017-06-04T07:04:55.478Z,23.30
2017-06-04T07:07:23.058Z,23.30
2017-06-04T07:09:50.618Z,23.30
2017-06-04T07:12:18.200Z,23.20
2017-06-04T07:14:46.523Z,22.70
2017-06-04T07:17:14.049Z,22.70
2017-06-04T07:19:42.388Z,23.10
2017-06-04T07:22:09.952Z,23.00
2017-06-04T07:24:37.486Z,23.30
2017-06-04T07:27:05.025Z,23.40
2017-06-04T07:29:32.627Z,23.40
2017-06-04T07:32:00.207Z,23.40
2017-06-04T07:34:27.745Z,23.50
2017-06-04T07:36:55.323Z,23.80
2017-06-04T07:39:22.895Z,24.10
2017-06-04T07:41:50.459Z,24.90
2017-06-04T07:44:18.022Z,25.50
2017-06-04T07:46:45.611Z,25.50
2017-06-04T07:49:13.159Z,25.70
2017-06-04T07:51:41.441Z,25.50
2017-06-04T07:54:09.750Z,24.70
2017-06-04T07:56:37.280Z,24.60
2017-06-04T07:59:04.779Z,24.70
2017-06-04T08:01:32.342Z,25.40
2017-06-04T08:03:59.865Z,25.80
2017-06-04T08:06:27.440Z,25.90
2017-06-04T08:08:54.958Z,25.60
2017-06-04T08:11:23.289Z,27.00
2017-06-04T08:13:50.849Z,27.00
2017-06-04T08:16:18.396Z,28.70
2017-06-04T08:18:45.968Z,30.20
2017-06-04T08:21:13.530Z,30.70
2017-06-04T08:23:41.058Z,31.60
2017-06-04T08:26:09.385Z,33.30
2017-06-04T08:28:36.930Z,33.30
2017-06-04T08:31:04.488Z,32.80
2017-06-04T08:33:32.030Z,32.60
2017-06-04T08:35:59.632Z,32.60
2017-06-04T08:38:27.219Z,32.20
2017-06-04T08:40:54.778Z,31.50
2017-06-04T08:43:22.384Z,30.60
2017-06-04T08:45:49.964Z,30.20
2017-06-04T08:48:17.495Z,30.10
2017-06-04T08:50:45.054Z,30.40
2017-06-04T08:53:12.597Z,31.20
2017-06-04T08:55:40.931Z,33.20
2017-06-04T08:58:08.463Z,33.10
2017-06-04T09:00:35.979Z,33.80
2017-06-04T09:03:04.306Z,34.10
2017-06-04T09:05:31.805Z,34.00
2017-06-04T09:07:59.336Z,33.10
2017-06-04T09:10:26.905Z,31.70
2017-06-04T09:12:54.460Z,30.90
2017-06-04T09:15:22.013Z,31.00
2017-06-04T09:17:49.566Z,31.50
2017-06-04T09:20:17.075Z,32.70
2017-06-04T09:22:44.632Z,33.40
2017-06-04T09:25:12.939Z,33.70
2017-06-04T09:27:40.484Z,33.70
2017-06-04T09:30:08.003Z,34.00
2017-06-04T09:32:35.559Z,34.20
2017-06-04T09:35:03.083Z,34.60
2017-06-04T09:37:30.638Z,35.00
2017-06-04T09:39:58.151Z,35.50
2017-06-04T09:42:25.695Z,35.50
2017-06-04T09:44:53.224Z,35.10
2017-06-04T09:47:20.790Z,33.20
2017-06-04T09:49:48.296Z,30.70
2017-06-04T09:52:15.822Z,29.50
2017-06-04T09:54:43.317Z,28.80
2017-06-04T09:57:10.846Z,28.90
2017-06-04T09:59:38.393Z,30.20
2017-06-04T10:02:05.942Z,31.90
2017-06-04T10:04:33.446Z,32.90
2017-06-04T10:07:00.950Z,33.60
2017-06-04T10:09:28.475Z,33.10
2017-06-04T10:11:55.987Z,31.70
2017-06-04T10:14:23.538Z,30.30
2017-06-04T10:16:51.091Z,29.20
2017-06-04T10:19:18.629Z,27.90
2017-06-04T10:21:46.180Z,27.40
2017-06-04T10:24:14.513Z,27.20
2017-06-04T10:26:42.056Z,27.20
2017-06-04T10:29:09.585Z,27.30
2017-06-04T10:31:37.131Z,29.30
2017-06-04T10:34:04.679Z,31.30
2017-06-04T10:36:32.269Z,32.70
2017-06-04T10:38:59.811Z,32.70
2017-06-04T10:41:27.347Z,31.40
2017-06-04T10:43:54.845Z,30.40
2017-06-04T10:46:23.154Z,28.80
2017-06-04T10:48:50.684Z,28.70
2017-06-04T10:51:18.237Z,28.20
2017-06-04T10:53:46.563Z,26.60
2017-06-04T10:56:14.085Z,26.60
2017-06-04T10:58:41.631Z,26.50
2017-06-04T11:01:09.923Z,27.60
2017-06-04T11:03:37.468Z,27.50
2017-06-04T11:06:05.805Z,31.60
2017-06-04T11:08:33.364Z,31.50
2017-06-04T11:11:00.879Z,31.60
2017-06-04T11:13:29.169Z,30.50
2017-06-04T11:15:56.706Z,30.40
2017-06-04T11:18:24.979Z,28.80
2017-06-04T11:20:53.334Z,28.30
2017-06-04T11:23:20.863Z,28.30
2017-06-04T11:25:48.380Z,27.80
2017-06-04T11:28:15.910Z,27.50
2017-06-04T11:30:43.436Z,26.90
2017-06-04T11:33:10.967Z,26.30
2017-06-04T11:35:39.283Z,26.20
2017-06-04T11:38:06.846Z,26.10
2017-06-04T11:40:34.375Z,26.00
2017-06-04T11:43:01.925Z,25.50
2017-06-04T11:45:29.464Z,25.20
2017-06-04T11:47:57.000Z,25.10
2017-06-04T11:50:24.509Z,25.00
2017-06-04T11:52:52.848Z,25.10
2017-06-04T11:55:20.351Z,25.10
2017-06-04T11:57:47.908Z,25.10
2017-06-04T12:00:15.475Z,25.20
2017-06-04T12:02:42.991Z,25.10
2017-06-04T12:05:10.529Z,25.10
2017-06-04T12:07:38.058Z,25.20
2017-06-04T12:10:05.618Z,25.60
2017-06-04T12:12:33.153Z,26.20
2017-06-04T12:15:00.682Z,26.90
2017-06-04T12:17:28.276Z,27.20
2017-06-04T12:19:56.567Z,27.60
2017-06-04T12:22:24.131Z,27.60
2017-06-04T12:24:51.649Z,27.60
2017-06-04T12:27:19.219Z,27.50
2017-06-04T12:29:46.742Z,27.40
2017-06-04T12:32:14.304Z,27.40
2017-06-04T12:34:41.888Z,27.30
2017-06-04T12:37:09.422Z,27.00
2017-06-04T12:39:36.963Z,26.80
2017-06-04T12:42:04.515Z,26.80
2017-06-04T12:44:32.034Z,26.80
2017-06-04T12:47:00.353Z,26.70
2017-06-04T12:49:27.919Z,26.60
2017-06-04T12:51:55.491Z,26.70
2017-06-04T12:54:23.040Z,26.60
2017-06-04T12:56:51.150Z,26.50
2017-06-04T12:59:18.680Z,26.50
2017-06-04T13:01:46.256Z,26.30
2017-06-04T13:04:13.871Z,26.40
2017-06-04T13:06:42.174Z,26.40
2017-06-04T13:09:09.728Z,26.40
2017-06-04T13:11:37.274Z,26.50
2017-06-04T13:14:04.789Z,26.60
2017-06-04T13:16:32.319Z,26.90
2017-06-04T13:18:59.881Z,26.90
2017-06-04T13:21:27.447Z,27.00
2017-06-04T13:23:55.032Z,27.10
2017-06-04T13:26:22.584Z,27.00
2017-06-04T13:28:50.102Z,26.80
2017-06-04T13:31:17.637Z,26.50
2017-06-04T13:33:45.181Z,26.40
2017-06-04T13:36:12.710Z,26.40
2017-06-04T13:38:40.270Z,26.50
2017-06-04T13:41:07.794Z,26.70
2017-06-04T13:43:35.391Z,26.70
2017-06-04T13:46:02.922Z,25.90
2017-06-04T13:48:30.484Z,25.70
2017-06-04T13:50:57.995Z,25.60
2017-06-04T13:53:25.543Z,25.20
2017-06-04T13:55:53.078Z,24.60
2017-06-04T13:58:20.642Z,24.30
2017-06-04T14:00:48.208Z,24.10
2017-06-04T14:03:15.758Z,24.10
2017-06-04T14:05:43.290Z,24.00
2017-06-04T14:08:10.868Z,24.00
2017-06-04T14:10:38.440Z,24.00
2017-06-04T14:13:06.096Z,24.30
2017-06-04T14:15:33.631Z,24.50
2017-06-04T14:18:01.303Z,24.60
2017-06-04T14:20:28.886Z,25.00
2017-06-04T14:22:56.451Z,25.20
2017-06-04T14:25:23.987Z,25.30
2017-06-04T14:27:51.553Z,25.60
2017-06-04T14:30:19.138Z,25.90
2017-06-04T14:32:46.664Z,26.20
2017-06-04T14:35:14.236Z,26.40
2017-06-04T14:37:41.759Z,26.70
2017-06-04T14:40:10.102Z,27.50
2017-06-04T14:42:37.639Z,27.40
2017-06-04T14:45:05.157Z,27.60
2017-06-04T14:47:33.439Z,28.20
2017-06-04T14:50:01.060Z,28.20
2017-06-04T14:52:28.616Z,27.90
2017-06-04T14:54:56.177Z,27.20
2017-06-04T14:57:23.677Z,26.00
2017-06-04T14:59:52.011Z,24.70
2017-06-04T15:02:19.580Z,24.60
2017-06-04T15:04:47.111Z,24.30
2017-06-04T15:07:14.665Z,24.40
2017-06-04T15:09:42.225Z,24.40
2017-06-04T15:12:09.784Z,24.30
2017-06-04T15:14:37.318Z,24.60
2017-06-04T15:17:05.599Z,24.00
2017-06-04T15:19:33.126Z,24.00
2017-06-04T15:22:00.685Z,24.10
2017-06-04T15:24:28.252Z,23.90
2017-06-04T15:26:56.532Z,23.80
2017-06-04T15:29:24.887Z,23.70
2017-06-04T15:31:52.409Z,23.70
2017-06-04T15:34:20.005Z,23.70
2017-06-04T15:36:47.538Z,23.70
2017-06-04T15:39:15.100Z,23.70
2017-06-04T15:41:42.624Z,23.40
2017-06-04T15:44:10.975Z,23.60
2017-06-04T15:46:38.533Z,23.60
2017-06-04T15:49:06.114Z,23.70
2017-06-04T15:51:34.416Z,24.10
2017-06-04T15:54:02.002Z,24.10
2017-06-04T15:56:29.561Z,24.30
2017-06-04T15:58:57.099Z,24.50
2017-06-04T16:01:24.662Z,24.70
2017-06-04T16:03:52.195Z,24.70
2017-06-04T16:06:19.715Z,24.90
2017-06-04T16:08:47.242Z,24.90
2017-06-04T16:11:14.763Z,24.70
2017-06-04T16:13:42.296Z,24.70
2017-06-04T16:16:09.831Z,24.80
2017-06-04T16:18:37.364Z,24.70
2017-06-04T16:21:04.920Z,24.70
2017-06-04T16:23:32.448Z,24.60
2017-06-04T16:26:00.000Z,24.10
2017-06-04T16:28:27.598Z,24.20
2017-06-04T16:30:55.948Z,24.20
2017-06-04T16:33:23.484Z,24.20
2017-06-04T16:35:51.011Z,24.30
2017-06-04T16:38:18.577Z,24.20
2017-06-04T16:40:46.103Z,24.10
2017-06-04T16:43:13.646Z,24.60
2017-06-04T16:45:41.261Z,24.70
2017-06-04T16:48:08.791Z,24.70
2017-06-04T16:50:36.336Z,24.80
2017-06-04T16:53:04.677Z,24.60
2017-06-04T16:55:32.212Z,24.70
2017-06-04T16:57:59.747Z,24.80
2017-06-04T17:00:28.019Z,24.70
2017-06-04T17:02:56.352Z,24.70
2017-06-04T17:05:23.891Z,24.70
2017-06-04T17:07:51.468Z,24.40
2017-06-04T17:10:18.988Z,24.40
2017-06-04T17:12:47.291Z,24.50
2017-06-04T17:15:14.842Z,24.50
2017-06-04T17:17:42.431Z,24.20
2017-06-04T17:20:09.954Z,24.20
2017-06-04T17:22:37.512Z,24.40
2017-06-04T17:25:05.037Z,24.60
2017-06-04T17:27:32.586Z,24.60
2017-06-04T17:30:00.136Z,24.70
2017-06-04T17:32:27.673Z,24.30
2017-06-04T17:34:55.217Z,24.10
2017-06-04T17:37:22.777Z,24.30
2017-06-04T17:39:50.357Z,24.40
2017-06-04T17:42:17.900Z,24.60
2017-06-04T17:44:45.457Z,24.40
2017-06-04T17:47:13.028Z,24.60
2017-06-04T17:49:40.567Z,24.30
2017-06-04T17:52:08.131Z,24.00
2017-06-04T17:54:35.646Z,24.10
2017-06-04T17:57:03.195Z,23.90
2017-06-04T17:59:30.768Z,23.80
2017-06-04T18:01:58.312Z,23.90
2017-06-04T18:04:25.824Z,23.90
2017-06-04T18:06:54.177Z,24.00
2017-06-04T18:09:21.724Z,24.00
2017-06-04T18:11:49.295Z,24.00
2017-06-04T18:14:16.824Z,24.00
2017-06-04T18:16:44.418Z,24.10
2017-06-04T18:19:11.955Z,24.10
2017-06-04T18:21:40.356Z,24.00
2017-06-04T18:24:07.890Z,24.00
2017-06-04T18:26:35.430Z,23.80
2017-06-04T18:29:04.880Z,23.70
2017-06-04T18:31:33.205Z,23.40
2017-06-04T18:34:00.736Z,23.40
2017-06-04T18:36:29.060Z,23.40
2017-06-04T18:38:56.574Z,23.40
2017-06-04T18:41:24.925Z,23.60
2017-06-04T18:43:52.450Z,23.60
2017-06-04T18:46:20.018Z,23.80
2017-06-04T18:48:47.570Z,23.80
2017-06-04T18:51:15.140Z,23.80
2017-06-04T18:53:42.684Z,23.60
2017-06-04T18:56:10.260Z,23.60
2017-06-04T18:58:37.784Z,23.60
2017-06-04T19:01:05.335Z,23.50
2017-06-04T19:03:33.623Z,23.60
2017-06-04T19:06:01.235Z,23.60
2017-06-04T19:08:28.744Z,23.70
2017-06-04T19:10:56.303Z,23.70
2017-06-04T19:13:23.849Z,23.80
2017-06-04T19:15:51.450Z,23.70
2017-06-04T19:18:18.981Z,23.60
2017-06-04T19:20:47.270Z,23.30
2017-06-04T19:23:14.858Z,23.30
2017-06-04T19:25:42.432Z,22.60
2017-06-04T19:28:09.982Z,22.80
2017-06-04T19:30:37.554Z,22.80
2017-06-04T19:33:05.122Z,22.80
2017-06-04T19:35:32.626Z,23.00
2017-06-04T19:38:00.212Z,23.00
2017-06-04T19:40:27.756Z,22.90
2017-06-04T19:42:55.345Z,22.80
2017-06-04T19:45:22.862Z,22.80
2017-06-04T19:47:50.414Z,23.00
2017-06-04T19:50:18.713Z,23.20
2017-06-04T19:52:46.221Z,23.10
2017-06-04T19:55:13.757Z,23.20
2017-06-04T19:57:41.306Z,23.10
2017-06-04T20:00:08.836Z,23.10
2017-06-04T20:02:36.396Z,23.10
2017-06-04T20:05:03.970Z,23.00
2017-06-04T20:07:31.536Z,22.70
2017-06-04T20:09:59.062Z,22.70
2017-06-04T20:12:27.379Z,22.70
2017-06-04T20:14:54.936Z,22.70
2017-06-04T20:17:22.464Z,22.80
2017-06-04T20:19:50.834Z,22.70
2017-06-04T20:22:19.140Z,22.70
2017-06-04T20:24:46.664Z,22.60
2017-06-04T20:27:14.196Z,22.60
2017-06-04T20:29:41.709Z,22.60
2017-06-04T20:32:09.260Z,22.60
2017-06-04T20:34:37.546Z,22.30
2017-06-04T20:37:05.058Z,22.30
2017-06-04T20:39:32.634Z,22.30
2017-06-04T20:42:00.159Z,22.00
2017-06-04T20:44:27.712Z,21.90
2017-06-04T20:46:55.267Z,21.80
2017-06-04T20:49:22.844Z,21.90
2017-06-04T20:51:50.373Z,21.80
2017-06-04T20:54:17.990Z,21.70
2017-06-04T20:56:45.490Z,21.70
2017-06-04T20:59:13.079Z,21.70
2017-06-04T21:01:40.583Z,21.60
2017-06-04T21:04:08.183Z,21.50
2017-06-04T21:06:35.708Z,21.50
2017-06-04T21:09:03.277Z,21.50
2017-06-04T21:11:31.555Z,21.40
2017-06-04T21:13:59.920Z,21.30
2017-06-04T21:16:27.449Z,21.30
2017-06-04T21:18:54.990Z,21.30
2017-06-04T21:21:22.536Z,21.30
2017-06-04T21:23:50.046Z,21.30
2017-06-04T21:26:17.635Z,21.20
2017-06-04T21:28:45.185Z,21.20
2017-06-04T21:31:13.499Z,21.10
2017-06-04T21:33:41.041Z,21.00
2017-06-04T21:36:08.595Z,20.90
2017-06-04T21:38:36.903Z,20.70
2017-06-04T21:41:04.436Z,20.70
2017-06-04T21:43:32.781Z,20.70
2017-06-04T21:46:00.340Z,20.70
2017-06-04T21:48:27.868Z,20.70
2017-06-04T21:50:55.410Z,20.60
2017-06-04T21:53:22.931Z,20.60
2017-06-04T21:55:50.456Z,20.60
2017-06-04T21:58:17.987Z,20.50
2017-06-04T22:00:45.546Z,20.40
2017-06-04T22:03:13.100Z,20.40
2017-06-04T22:05:40.637Z,20.30
2017-06-04T22:08:08.946Z,20.20
2017-06-04T22:10:36.484Z,20.10
2017-06-04T22:13:04.812Z,20.00
2017-06-04T22:15:32.316Z,19.90
2017-06-04T22:18:00.668Z,19.90
2017-06-04T22:20:28.232Z,19.90
2017-06-04T22:22:55.778Z,19.80
2017-06-04T22:25:23.303Z,19.80
2017-06-04T22:27:50.838Z,19.80
2017-06-04T22:30:19.155Z,19.80
2017-06-04T22:32:46.693Z,19.70
2017-06-04T22:35:14.216Z,19.60
2017-06-04T22:37:41.759Z,19.70
2017-06-04T22:40:09.268Z,19.80
2017-06-04T22:42:36.831Z,19.90
2017-06-04T22:45:04.353Z,19.90
2017-06-04T22:47:31.885Z,19.90
2017-06-04T22:49:59.404Z,20.00
2017-06-04T22:52:27.023Z,20.10
2017-06-04T22:54:54.518Z,20.30
2017-06-04T22:57:22.809Z,20.40
2017-06-04T22:59:50.368Z,20.40
2017-06-04T23:02:17.888Z,20.50
2017-06-04T23:04:45.417Z,20.60
2017-06-04T23:07:12.962Z,20.60
2017-06-04T23:09:40.480Z,20.70
2017-06-04T23:12:08.077Z,20.70
2017-06-04T23:14:35.614Z,20.70
2017-06-04T23:17:03.143Z,20.70
2017-06-04T23:19:30.642Z,20.80
2017-06-04T23:21:58.186Z,20.80
2017-06-04T23:24:26.467Z,20.90
2017-06-04T23:26:54.743Z,20.90
2017-06-04T23:29:23.040Z,20.80
2017-06-04T23:31:50.560Z,20.80
2017-06-04T23:34:18.938Z,20.90
2017-06-04T23:36:47.270Z,20.90
2017-06-04T23:39:14.844Z,20.90
2017-06-04T23:41:42.356Z,20.90
2017-06-04T23:44:09.923Z,20.90
2017-06-04T23:46:37.512Z,20.80
2017-06-04T23:49:05.072Z,20.90
2017-06-04T23:51:32.633Z,20.90
2017-06-04T23:54:00.203Z,20.90
2017-06-04T23:56:27.709Z,20.90
2017-06-04T23:58:56.016Z,20.90
